Time;durP1;ratioP1;P1;durP2;ratioP2;P2;SDS_P1;SDS_P2;PMS_P1;PMS_P2;Temp;Humidity;BMP_temperature;BMP_pressure;BME280_temperature;BME280_humidity;BME280_pressure;Samples;Min_cycle;Max_cycle;Signal;HPM_P1;HPM_P2
2023/10/11 00:02:17;;;;;;;;;;;;;;;17.44;100.00;100221.06;4859226;29;20319;-77
2023/10/11 00:04:44;;;;;;;;;;;;;;;17.40;100.00;100224.25;4876418;29;19923;-77
2023/10/11 00:07:09;;;;;;;;;;;;;;;17.32;100.00;100222.44;4876297;29;19924;-77
2023/10/11 00:09:35;;;;;;;;;;;;;;;17.27;100.00;100222.13;4875859;29;19928;-77
2023/10/11 00:12:11;;;;;;;;;;;;;;;17.23;100.00;100220.81;4875979;29;19947;-77
2023/10/11 00:14:39;;;;;;;;;;;;;;;17.15;100.00;100232.31;4876034;29;19919;-77
2023/10/11 00:17:09;;;;;;;;;;;;;;;17.02;100.00;100220.50;4876104;29;19931;-77
2023/10/11 00:19:35;;;;;;;;;;;;;;;16.92;100.00;100226.00;4875645;29;19923;-77
2023/10/11 00:22:01;;;;;;;;;;;;;;;17.05;100.00;100230.81;4859273;29;20333;-78
2023/10/11 00:24:28;;;;;;;;;;;;;;;17.07;100.00;100231.50;4875642;29;20459;-77
2023/10/11 00:26:55;;;;;;;;;;;;;;;17.03;100.00;100227.47;4879245;29;19984;-78
2023/10/11 00:29:21;;;;;;;;;;;;;;;17.05;100.00;100225.50;4879727;29;20269;-78
2023/10/11 00:31:46;;;;;;;;;;;;;;;17.11;100.00;100235.47;4879900;29;19972;-77
2023/10/11 00:34:12;;;;;;;;;;;;;;;17.10;100.00;100239.16;4879993;29;19931;-77
2023/10/11 00:36:38;;;;;;;;;;;;;;;17.07;100.00;100236.81;4863523;29;19980;-77
2023/10/11 00:39:07;;;;;;;;;;;;;;;16.99;100.00;100236.81;4863369;29;19931;-76
2023/10/11 00:41:35;;;;;;;;;;;;;;;16.97;100.00;100233.47;4879246;29;19954;-76
2023/10/11 00:44:02;;;;;;;;;;;;;;;16.99;100.00;100236.81;4879281;29;19923;-77
2023/10/11 00:46:36;;;;;;;;;;;;;;;17.01;100.00;100240.16;4879337;29;20010;-77
2023/10/11 00:49:09;;;;;;;;;;;;;;;17.02;100.00;100231.97;4872342;29;19924;-78
2023/10/11 00:51:36;;;;;;;;;;;;;;;16.95;100.00;100235.50;4879363;29;19934;-78
2023/10/11 00:54:03;;;;;;;;;;;;;;;16.98;100.00;100233.31;4871933;29;19928;-77
2023/10/11 00:56:34;;;;;;;;;;;;;;;16.98;100.00;100229.81;4879539;29;20304;-78
2023/10/11 00:59:00;;;;;;;;;;;;;;;16.94;100.00;100221.34;4868736;29;19931;-77
2023/10/11 01:01:26;;;;;;;;;;;;;;;16.87;100.00;100219.50;4876947;29;19951;-78
2023/10/11 01:03:53;;;;;;;;;;;;;;;16.87;100.00;100232.81;4877661;29;19932;-78
2023/10/11 01:06:19;;;;;;;;;;;;;;;16.87;100.00;100220.34;4879299;29;19971;-78
2023/10/11 01:08:48;;;;;;;;;;;;;;;16.81;100.00;100225.50;4874030;29;19986;-78
2023/10/11 01:11:14;;;;;;;;;;;;;;;16.59;100.00;100225.16;4862583;29;20377;-77
2023/10/11 01:13:50;;;;;;;;;;;;;;;16.26;100.00;100218.06;4878572;29;19924;-78
2023/10/11 01:16:16;;;;;;;;;;;;;;;16.33;100.00;100221.75;4876501;29;19931;-78
2023/10/11 01:18:42;;;;;;;;;;;;;;;16.34;100.00;100228.75;4879190;29;19923;-77
2023/10/11 01:21:08;;;;;;;;;;;;;;;16.41;100.00;100221.78;4862537;29;19923;-79
2023/10/11 01:23:34;;;;;;;;;;;;;;;16.39;100.00;100219.25;4861515;29;20167;-76
2023/10/11 01:26:07;;;;;;;;;;;;;;;16.30;100.00;100222.09;4877841;29;19919;-78
2023/10/11 01:28:40;;;;;;;;;;;;;;;16.27;100.00;100220.56;4861920;29;20096;-77
2023/10/11 01:31:09;;;;;;;;;;;;;;;16.26;100.00;100218.06;4855951;29;19930;-77
2023/10/11 01:33:41;;;;;;;;;;;;;;;16.27;100.00;100214.41;4878770;29;19935;-78
2023/10/11 01:36:07;;;;;;;;;;;;;;;16.20;100.00;100222.22;4878117;29;20341;-78
2023/10/11 01:38:36;;;;;;;;;;;;;;;16.00;100.00;100218.19;4861603;29;20020;-77
2023/10/11 01:41:03;;;;;;;;;;;;;;;15.93;100.00;100210.00;4857657;29;19930;-78
2023/10/11 01:43:29;;;;;;;;;;;;;;;15.87;100.00;100207.97;4861954;29;19971;-78
2023/10/11 01:45:54;;;;;;;;;;;;;;;15.93;100.00;100212.66;4878661;29;20286;-78
2023/10/11 01:48:20;;;;;;;;;;;;;;;16.01;100.00;100211.84;4878532;29;19923;-78
2023/10/11 01:50:47;;;;;;;;;;;;;;;16.04;100.00;100208.03;4878388;29;19972;-78
2023/10/11 01:53:14;;;;;;;;;;;;;;;16.17;100.00;100211.91;4878672;29;19924;-75
2023/10/11 01:55:39;;;;;;;;;;;;;;;16.22;100.00;100212.25;4858301;29;19971;-78
2023/10/11 01:58:06;;;;;;;;;;;;;;;16.27;100.00;100203.75;4877945;29;19958;-78
2023/10/11 02:00:32;;;;;;;;;;;;;;;16.32;100.00;100201.44;4869455;29;19936;-78
2023/10/11 02:02:57;;;;;;;;;;;;;;;16.30;100.00;100200.78;4861895;29;20337;-78
2023/10/11 02:05:23;;;;;;;;;;;;;;;16.33;100.00;100208.44;4861330;29;19931;-78
2023/10/11 02:07:48;;;;;;;;;;;;;;;16.27;100.00;100215.25;4861564;29;19928;-78
2023/10/11 02:10:14;;;;;;;;;;;;;;;16.15;100.00;100200.56;4877743;29;19924;-79
2023/10/11 02:12:44;;;;;;;;;;;;;;;16.12;100.00;100208.06;4878012;29;19987;-77
2023/10/11 02:15:11;;;;;;;;;;;;;;;16.15;100.00;100205.88;4878260;29;19951;-78
2023/10/11 02:17:39;;;;;;;;;;;;;;;16.17;100.00;100197.75;4877835;29;19927;-77
2023/10/11 02:20:12;;;;;;;;;;;;;;;16.15;100.00;100199.72;4869929;29;19947;-78
2023/10/11 02:22:43;;;;;;;;;;;;;;;16.17;100.00;100203.91;4842513;29;19932;-78
2023/10/11 02:25:13;;;;;;;;;;;;;;;16.21;100.00;100199.91;4875853;29;19924;-79
2023/10/11 02:27:39;;;;;;;;;;;;;;;16.19;100.00;100201.09;4874006;29;19928;-78
2023/10/11 02:30:07;;;;;;;;;;;;;;;16.20;100.00;100202.75;4877343;29;19931;-76
2023/10/11 02:32:38;;;;;;;;;;;;;;;16.11;100.00;100209.03;4860598;29;19932;-78
2023/10/11 02:35:06;;;;;;;;;;;;;;;16.11;100.00;100198.41;4872120;29;19947;-78
2023/10/11 02:37:35;;;;;;;;;;;;;;;16.03;100.00;100201.03;4877047;29;19930;-77
2023/10/11 02:40:00;;;;;;;;;;;;;;;16.04;100.00;100208.84;4877772;29;20310;-77
2023/10/11 02:42:26;;;;;;;;;;;;;;;16.02;100.00;100202.03;4876999;29;20445;-77
2023/10/11 02:44:52;;;;;;;;;;;;;;;15.89;100.00;100195.34;4877494;29;20010;-77
2023/10/11 02:47:22;;;;;;;;;;;;;;;15.85;100.00;100196.66;4876977;29;20262;-78
2023/10/11 02:49:51;;;;;;;;;;;;;;;15.77;100.00;100201.97;4877579;29;19963;-79
2023/10/11 02:52:18;;;;;;;;;;;;;;;15.63;100.00;100210.53;4877095;29;19928;-78
2023/10/11 02:54:46;;;;;;;;;;;;;;;15.64;100.00;100212.19;4877052;29;19935;-78
2023/10/11 02:57:19;;;;;;;;;;;;;;;15.69;100.00;100204.56;4877110;29;19931;-78
2023/10/11 02:59:50;;;;;;;;;;;;;;;15.68;100.00;100202.91;4874135;29;19923;-77
2023/10/11 03:02:15;;;;;;;;;;;;;;;15.64;100.00;100206.88;4860377;29;20320;-77
2023/10/11 03:04:42;;;;;;;;;;;;;;;15.68;100.00;100202.91;4860589;29;19982;-78
2023/10/11 03:07:15;;;;;;;;;;;;;;;15.68;100.00;100210.88;4875255;29;19935;-77
2023/10/11 03:09:40;;;;;;;;;;;;;;;15.69;100.00;100199.25;4860046;29;19924;-78
2023/10/11 03:12:18;;;;;;;;;;;;;;;15.74;100.00;100206.75;4860418;29;19946;-78
2023/10/11 03:14:45;;;;;;;;;;;;;;;15.74;100.00;100206.75;4873830;29;19924;-78
2023/10/11 03:17:13;;;;;;;;;;;;;;;15.73;100.00;100211.22;4876993;29;19990;-77
2023/10/11 03:19:42;;;;;;;;;;;;;;;15.78;100.00;100219.59;4872494;29;19949;-79
2023/10/11 03:22:31;;;;;;;;;;;;;;;15.67;100.00;100209.22;4877226;29;19959;-78
2023/10/11 03:25:00;;;;;;;;;;;;;;;15.53;100.00;100217.81;4875468;29;19923;-77
2023/10/11 03:27:36;;;;;;;;;;;;;;;15.53;100.00;100209.81;4876438;29;19927;-78
2023/10/11 03:30:02;;;;;;;;;;;;;;;15.45;100.00;100209.75;4876585;29;19971;-78
2023/10/11 03:32:27;;;;;;;;;;;;;;;15.55;100.00;100213.16;4876630;29;20621;-78
2023/10/11 03:34:53;;;;;;;;;;;;;;;15.53;100.00;100220.47;4876574;29;19927;-78
2023/10/11 03:37:18;;;;;;;;;;;;;;;15.48;100.00;100222.75;4859736;29;19976;-77
2023/10/11 03:39:44;;;;;;;;;;;;;;;15.38;100.00;100227.31;4876191;29;19924;-77
2023/10/11 03:44:35;;;;;;;;;;;;;;;15.38;100.00;100222.81;4875995;29;19924;-79
2023/10/11 03:47:14;;;;;;;;;;;;;;;15.44;100.00;100226.69;4876106;29;19930;-77
2023/10/11 03:52:22;;;;;;;;;;;;;;;15.21;100.00;100230.84;4877353;29;19923;-77
2023/10/11 03:54:53;;;;;;;;;;;;;;;15.27;100.00;100224.91;4876702;29;19924;-77
2023/10/11 03:57:18;;;;;;;;;;;;;;;15.33;100.00;100229.63;4875821;29;20159;-77
2023/10/11 03:59:48;;;;;;;;;;;;;;;15.39;100.00;100223.66;4876248;29;19986;-77
2023/10/11 04:02:17;;;;;;;;;;;;;;;15.31;100.00;100228.97;4876306;29;20033;-77
2023/10/11 04:04:43;;;;;;;;;;;;;;;15.37;100.00;100236.31;4877321;29;19931;-77
2023/10/11 04:07:12;;;;;;;;;;;;;;;15.31;100.00;100232.44;4876483;29;19928;-77
2023/10/11 04:09:44;;;;;;;;;;;;;;;15.28;100.00;100231.91;4875769;29;19931;-77
2023/10/11 04:12:13;;;;;;;;;;;;;;;15.34;100.00;100231.28;4874693;29;19931;-76
2023/10/11 04:17:10;;;;;;;;;;;;;;;15.30;100.00;100232.59;4876106;29;20018;-77
2023/10/11 04:19:39;;;;;;;;;;;;;;;15.32;100.00;100227.94;4875744;29;20039;-77
2023/10/11 04:22:12;;;;;;;;;;;;;;;15.29;100.00;100228.25;4875812;29;19924;-76
2023/10/11 04:24:38;;;;;;;;;;;;;;;15.19;100.00;100232.88;4875191;29;19935;-77
2023/10/11 04:29:52;;;;;;;;;;;;;;;15.19;100.00;100238.19;4873881;29;19971;-77
2023/10/11 04:35:02;;;;;;;;;;;;;;;15.07;100.00;100246.41;4875967;29;19938;-78
2023/10/11 04:37:28;;;;;;;;;;;;;;;15.07;100.00;100246.41;4858976;29;19927;-77
2023/10/11 04:39:56;;;;;;;;;;;;;;;15.08;100.00;100248.03;4875875;29;19996;-78
2023/10/11 04:42:28;;;;;;;;;;;;;;;15.09;100.00;100251.53;4875644;29;19924;-77
2023/10/11 04:44:57;;;;;;;;;;;;;;;15.09;100.00;100254.19;4876018;29;19951;-80
2023/10/11 04:47:27;;;;;;;;;;;;;;;14.84;100.00;100255.84;4875428;29;19951;-80
2023/10/11 04:49:52;;;;;;;;;;;;;;;14.77;100.00;100253.94;4858793;29;19951;-77
2023/10/11 04:52:23;;;;;;;;;;;;;;;14.58;100.00;100254.94;4875147;29;19974;-78
2023/10/11 04:54:54;;;;;;;;;;;;;;;14.58;100.00;100255.78;4876471;29;19923;-80
2023/10/11 04:57:35;;;;;;;;;;;;;;;14.62;100.00;100251.81;4877846;29;20296;-78
2023/10/11 05:00:00;;;;;;;;;;;;;;;14.67;100.00;100259.31;4876649;29;19924;-77
2023/10/11 05:02:32;;;;;;;;;;;;;;;14.68;100.00;100255.69;4870817;29;19931;-77
2023/10/11 05:04:59;;;;;;;;;;;;;;;14.67;100.00;100264.63;4875201;29;19931;-77
2023/10/11 05:07:25;;;;;;;;;;;;;;;14.65;100.00;100258.66;4874705;29;19924;-78
2023/10/11 05:09:59;;;;;;;;;;;;;;;14.70;100.00;100259.03;4875180;29;19931;-80
2023/10/11 05:12:24;;;;;;;;;;;;;;;14.65;100.00;100261.31;4877691;29;19924;-77
2023/10/11 05:19:45;;;;;;;;;;;;;;;14.62;100.00;100261.59;4877891;29;19923;-78
2023/10/11 05:32:32;;;;;;;;;;;;;;;14.75;100.00;100268.22;4876952;29;19923;-78
2023/10/11 05:51:33;;;;;;;;;;;;;;;14.68;100.00;100282.25;4874554;29;20000;-78
2023/10/11 05:53:59;;;;;;;;;;;;;;;14.61;100.00;100286.50;4535299;29;10000177;-77
2023/10/11 05:56:25;;;;;;;;;;;;;;;14.61;100.00;100292.63;4872317;29;19924;-78
2023/10/11 05:58:54;;;;;;;;;;;;;;;14.57;100.00;100296.59;4875905;29;19965;-75
2023/10/11 06:01:23;;;;;;;;;;;;;;;14.52;100.00;100292.72;4875031;29;19938;-76
2023/10/11 06:03:51;;;;;;;;;;;;;;;14.54;100.00;100298.72;4875803;29;20407;-77
2023/10/11 06:06:23;;;;;;;;;;;;;;;14.60;100.00;100304.28;4876833;29;20071;-77
2023/10/11 06:08:52;;;;;;;;;;;;;;;14.61;100.00;100308.56;4877616;29;19927;-80
2023/10/11 06:11:19;;;;;;;;;;;;;;;14.68;100.00;100303.50;4876440;29;20222;-78
2023/10/11 06:13:45;;;;;;;;;;;;;;;14.69;100.00;100315.81;4877630;29;19920;-79
2023/10/11 06:16:14;;;;;;;;;;;;;;;14.68;100.00;100316.78;4861462;29;19924;-79
2023/10/11 06:18:39;;;;;;;;;;;;;;;14.69;100.00;100315.81;4871536;29;20382;-80
2023/10/11 06:21:06;;;;;;;;;;;;;;;14.73;100.00;100325.13;4877840;29;19951;-79
2023/10/11 06:23:32;;;;;;;;;;;;;;;14.76;100.00;100316.88;4875702;29;20003;-79
2023/10/11 06:25:59;;;;;;;;;;;;;;;14.84;100.00;100319.63;4860676;29;19988;-81
2023/10/11 06:28:31;;;;;;;;;;;;;;;14.93;100.00;100328.50;4876165;29;19989;-77
2023/10/11 06:31:00;;;;;;;;;;;;;;;14.97;100.00;100324.53;4877543;29;20377;-78
2023/10/11 06:33:26;;;;;;;;;;;;;;;14.98;100.00;100332.38;4876901;29;19981;-79
2023/10/11 06:35:53;;;;;;;;;;;;;;;15.02;100.00;100331.06;4877679;29;19924;-78
2023/10/11 06:38:18;;;;;;;;;;;;;;;15.09;100.00;100334.78;4876381;29;19924;-79
2023/10/11 06:40:54;;;;;;;;;;;;;;;15.12;100.00;100334.50;4876798;29;19947;-79
2023/10/11 06:43:33;;;;;;;;;;;;;;;15.14;100.00;100337.81;4889593;29;20026;-76
2023/10/11 06:46:01;;;;;;;;;;;;;;;15.08;100.00;100327.78;4883140;29;19979;-76
2023/10/11 06:48:29;;;;;;;;;;;;;;;15.04;100.00;100326.44;4878969;29;19923;-76
2023/10/11 06:50:55;;;;;;;;;;;;;;;15.06;100.00;100328.94;4894198;29;19923;-74
2023/10/11 06:53:20;;;;;;;;;;;;;;;15.02;100.00;100344.34;4894379;29;20798;-75
2023/10/11 06:55:50;;;;;;;;;;;;;;;15.00;100.00;100335.72;4878462;29;19952;-76
2023/10/11 06:58:21;;;;;;;;;;;;;;;14.95;100.00;100338.00;4893253;29;19954;-76
2023/10/11 07:00:47;;;;;;;;;;;;;;;15.03;100.00;100346.03;4895482;29;19991;-73
2023/10/11 07:05:48;;;;;;;;;;;;;;;15.27;100.00;100353.38;4895455;29;19979;-75
2023/10/11 07:08:20;;;;;;;;;;;;;;;15.36;100.00;100351.63;4893424;29;20107;-74
2023/10/11 07:11:10;;;;;;;;;;;;;;;15.41;100.00;100354.66;4895320;29;19946;-75
2023/10/11 07:13:57;;;;;;;;;;;;;;;15.35;100.00;100355.28;4888170;29;19928;-75
2023/10/11 07:16:23;;;;;;;;;;;;;;;15.26;100.00;100353.53;4892966;29;19927;-74
2023/10/11 07:18:53;;;;;;;;;;;;;;;15.36;100.00;100362.28;4895525;29;19979;-73
2023/10/11 07:21:19;;;;;;;;;;;;;;;15.44;100.00;100359.66;4877235;29;19979;-74
2023/10/11 07:26:23;;;;;;;;;;;;;;;15.63;100.00;100375.47;4894358;29;20266;-73
2023/10/11 07:28:52;;;;;;;;;;;;;;;15.72;100.00;100369.25;4892543;29;19923;-74
2023/10/11 07:31:18;;;;;;;;;;;;;;;15.76;100.00;100364.44;4894659;29;19930;-73
2023/10/11 07:33:49;;;;;;;;;;;;;;;15.79;100.00;100375.59;4894758;29;20014;-74
2023/10/11 07:36:15;;;;;;;;;;;;;;;15.83;100.00;100376.97;4878229;29;19923;-73
2023/10/11 07:38:43;;;;;;;;;;;;;;;15.89;100.00;100376.34;4893141;29;19975;-74
2023/10/11 07:41:17;;;;;;;;;;;;;;;16.05;100.00;100372.09;4875287;29;19979;-74
2023/10/11 07:43:45;;;;;;;;;;;;;;;16.16;100.00;100377.97;4877761;29;19941;-74
2023/10/11 07:46:10;;;;;;;;;;;;;;;16.22;100.00;100376.50;4891851;29;19963;-73
2023/10/11 07:48:36;;;;;;;;;;;;;;;16.26;100.00;100375.19;4894658;29;19970;-75
2023/10/11 07:51:09;;;;;;;;;;;;;;;16.31;100.00;100376.41;4878159;29;19940;-74
2023/10/11 07:53:40;;;;;;;;;;;;;;;16.33;100.00;100373.56;4893200;29;19919;-73
2023/10/11 07:56:05;;;;;;;;;;;;;;;16.42;100.00;100377.94;4891293;29;19929;-74
2023/10/11 07:58:51;;;;;;;;;;;;;;;16.50;100.00;100372.63;4877100;29;19920;-75
2023/10/11 08:01:30;;;;;;;;;;;;;;;16.63;100.00;100374.88;4892756;29;19923;-74
2023/10/11 08:03:56;;;;;;;;;;;;;;;16.73;100.00;100379.06;4894549;29;19930;-73
2023/10/11 08:06:25;;;;;;;;;;;;;;;16.82;100.00;100379.09;4876436;29;19924;-74
2023/10/11 08:08:52;;;;;;;;;;;;;;;16.91;100.00;100372.78;4893700;29;19998;-74
2023/10/11 08:11:22;;;;;;;;;;;;;;;16.97;100.00;100378.28;4894217;29;19993;-75
2023/10/11 08:13:59;;;;;;;;;;;;;;;17.03;100.00;100371.47;4876978;29;19926;-74
2023/10/11 08:16:26;;;;;;;;;;;;;;;17.07;100.00;100378.16;4892879;29;19927;-73
2023/10/11 08:18:51;;;;;;;;;;;;;;;17.12;100.00;100378.50;4890255;29;19920;-74
2023/10/11 08:21:17;;;;;;;;;;;;;;;17.21;100.00;100380.16;4894159;29;19930;-74
2023/10/11 08:23:43;;;;;;;;;;;;;;;17.20;100.00;100368.66;4894612;29;19931;-74
2023/10/11 08:26:14;;;;;;;;;;;;;;;17.25;100.00;100370.84;4889932;29;19966;-77
2023/10/11 08:28:47;;;;;;;;;;;;;;;17.30;100.00;100368.50;4890595;29;19963;-75
2023/10/11 08:31:13;;;;;;;;;;;;;;;17.35;100.00;100371.50;4876119;29;19923;-74
2023/10/11 08:33:39;;;;;;;;;;;;;;;17.41;100.00;100376.19;4892805;29;19923;-75
2023/10/11 08:36:10;;;;;;;;;;;;;;;17.46;100.00;100378.34;4892991;29;19930;-72
2023/10/11 08:38:35;;;;;;;;;;;;;;;17.51;100.00;100379.50;4890720;29;19927;-74
2023/10/11 08:41:01;;;;;;;;;;;;;;;17.57;100.00;100370.81;4889529;29;19935;-72
2023/10/11 08:43:28;;;;;;;;;;;;;;;17.62;100.00;100369.50;4891455;29;19923;-74
2023/10/11 08:46:01;;;;;;;;;;;;;;;17.65;100.00;100366.53;4885501;29;19927;-74
2023/10/11 08:48:29;;;;;;;;;;;;;;;17.74;100.00;100371.66;4891011;29;20324;-73
2023/10/11 08:50:55;;;;;;;;;;;;;;;17.82;100.00;100376.16;4891959;29;20412;-72
2023/10/11 08:53:21;;;;;;;;;;;;;;;17.91;100.00;100375.13;4896458;29;19970;-73
2023/10/11 08:55:54;;;;;;;;;;;;;;;17.96;100.00;100375.50;4900163;29;20411;-73
2023/10/11 08:58:27;;;;;;;;;;;;;;;17.98;100.00;100374.31;4895536;29;20394;-73
2023/10/11 09:00:55;;;;;;;;;;;;;;;18.07;100.00;100383.13;4894230;29;20278;-73
2023/10/11 09:03:23;;;;;;;;;;;;;;;18.14;100.00;100378.78;4898767;29;19930;-72
2023/10/11 09:05:58;;;;;;;;;;;;;;;18.22;100.00;100376.06;4895876;29;19959;-74
2023/10/11 09:08:27;;;;;;;;;;;;;;;18.30;100.00;100373.38;4897890;29;19923;-74
2023/10/11 09:11:11;;;;;;;;;;;;;;;18.35;100.00;100367.50;4879562;29;20030;-74
2023/10/11 09:13:38;;;;;;;;;;;;;;;18.44;100.00;100362.97;4896557;29;20372;-74
2023/10/11 09:16:12;;;;;;;;;;;;;;;18.50;100.00;100367.59;4898228;29;19970;-74
2023/10/11 09:18:38;;;;;;;;;;;;;;;18.57;100.00;100372.13;4880513;29;19924;-74
2023/10/11 09:21:12;;;;;;;;;;;;;;;18.65;100.00;100363.22;4897598;29;20147;-74
2023/10/11 09:23:39;;;;;;;;;;;;;;;18.75;100.00;100366.50;4889468;29;20317;-73
2023/10/11 09:26:05;;;;;;;;;;;;;;;18.84;100.00;100360.13;4895694;29;20321;-73
2023/10/11 09:28:40;;;;;;;;;;;;;;;18.89;100.00;100360.44;4876393;29;19974;-74
2023/10/11 09:31:11;;;;;;;;;;;;;;;18.96;100.00;100364.06;4892245;29;20303;-74
2023/10/11 09:33:38;;;;;;;;;;;;;;;19.05;100.00;100359.47;4897506;29;19919;-73
2023/10/11 09:36:06;;;;;;;;;;;;;;;19.09;100.00;100366.97;4893636;29;19935;-74
2023/10/11 09:38:38;;;;;;;;;;;;;;;19.13;100.00;100359.44;4897273;29;19926;-73
2023/10/11 09:41:08;;;;;;;;;;;;;;;19.20;100.00;100355.84;4896853;29;19931;-73
2023/10/11 09:43:40;;;;;;;;;;;;;;;19.26;100.00;100348.97;4897217;29;19931;-74
2023/10/11 09:46:11;;;;;;;;;;;;;;;19.34;100.00;100348.88;4894380;29;19923;-74
2023/10/11 09:48:37;;;;;;;;;;;;;;;19.43;100.00;100360.38;4876231;29;19933;-74
2023/10/11 09:51:07;;;;;;;;;;;;;;;19.49;100.00;100354.31;4897159;29;20018;-73
2023/10/11 09:53:41;;;;;;;;;;;;;;;19.55;100.00;100354.44;4896330;29;19929;-75
2023/10/11 09:56:15;;;;;;;;;;;;;;;19.62;100.00;100354.50;4896193;29;19924;-74
2023/10/11 09:58:57;;;;;;;;;;;;;;;19.66;100.00;100355.00;4886149;29;19927;-74
2023/10/11 10:01:26;;;;;;;;;;;;;;;19.71;100.00;100358.78;4891617;29;19928;-74
2023/10/11 10:03:52;;;;;;;;;;;;;;;19.77;100.00;100358.06;4897414;29;19927;-73
2023/10/11 10:06:18;;;;;;;;;;;;;;;19.83;100.00;100351.97;4896575;29;19939;-72
2023/10/11 10:09:04;;;;;;;;;;;;;;;19.88;100.00;100352.25;4893855;29;19928;-74
2023/10/11 10:11:48;;;;;;;;;;;;;;;19.98;100.00;100354.66;4896112;29;19963;-73
2023/10/11 10:14:26;;;;;;;;;;;;;;;20.06;100.00;100356.41;4895668;29;19927;-73
2023/10/11 10:17:11;;;;;;;;;;;;;;;20.12;100.00;100361.03;4877723;29;19971;-73
2023/10/11 10:19:43;;;;;;;;;;;;;;;20.20;100.00;100358.28;4878220;29;19923;-74
2023/10/11 10:22:10;;;;;;;;;;;;;;;20.27;100.00;100353.81;4873236;29;20010;-75
2023/10/11 10:24:35;;;;;;;;;;;;;;;20.32;100.00;100351.47;4894725;29;20018;-76
2023/10/11 10:27:21;;;;;;;;;;;;;;;20.39;100.00;100352.34;4896513;29;20033;-72
2023/10/11 10:29:54;;;;;;;;;;;;;;;20.47;100.00;100351.44;4892240;29;19923;-73
2023/10/11 10:32:20;;;;;;;;;;;;;;;20.54;100.00;100349.66;4877433;29;20312;-74
2023/10/11 10:34:46;;;;;;;;;;;;;;;20.58;100.00;100346.41;4896158;29;19923;-74
2023/10/11 10:37:34;;;;;;;;;;;;;;;20.60;100.00;100348.91;4877935;29;19927;-73
2023/10/11 10:40:24;;;;;;;;;;;;;;;20.65;100.00;100347.34;4891438;29;19924;-73
2023/10/11 10:43:09;;;;;;;;;;;;;;;20.70;100.00;100344.91;4890806;29;19927;-72
2023/10/11 10:45:35;;;;;;;;;;;;;;;20.77;100.00;100336.94;4889048;29;19954;-74
2023/10/11 10:48:14;;;;;;;;;;;;;;;20.83;100.00;100347.75;4892890;29;19923;-74
2023/10/11 10:50:49;;;;;;;;;;;;;;;20.90;100.00;100336.25;4892357;29;20073;-73
2023/10/11 10:53:17;;;;;;;;;;;;;;;20.98;100.00;100325.38;4872619;29;19958;-74
2023/10/11 10:55:44;;;;;;;;;;;;;;;21.09;100.00;100325.72;4877981;29;19990;-73
2023/10/11 10:58:19;;;;;;;;;;;;;;;21.18;100.00;100321.09;4892947;29;19931;-73
2023/10/11 11:00:47;;;;;;;;;;;;;;;21.28;100.00;100318.91;4890727;29;19977;-74
2023/10/11 11:03:17;;;;;;;;;;;;;;;21.34;100.00;100315.44;4894620;29;20380;-72
2023/10/11 11:05:55;;;;;;;;;;;;;;;21.40;100.00;100311.16;4888921;29;20390;-73
2023/10/11 11:08:25;;;;;;;;;;;;;;;21.51;100.00;100306.06;4875541;29;19931;-74
2023/10/11 11:11:27;;;;;;;;;;;;;;;21.61;100.00;100305.75;4892528;29;20648;-74
2023/10/11 11:13:54;;;;;;;;;;;;;;;21.76;100.00;100302.94;4893134;29;19983;-73
2023/10/11 11:16:29;;;;;;;;;;;;;;;21.85;100.00;100299.09;4895170;29;20006;-75
2023/10/11 11:19:01;;;;;;;;;;;;;;;21.95;100.00;100302.28;4895558;29;19979;-75
2023/10/11 11:21:29;;;;;;;;;;;;;;;22.12;100.00;100298.22;4895057;29;19934;-74
2023/10/11 11:23:55;;;;;;;;;;;;;;;22.27;100.00;100293.53;4895016;29;20822;-75
2023/10/11 11:26:23;;;;;;;;;;;;;;;22.43;100.00;100281.59;4878643;29;19970;-74
2023/10/11 11:28:51;;;;;;;;;;;;;;;22.62;100.00;100285.38;4891589;29;19924;-74
2023/10/11 11:34:04;;;;;;;;;;;;;;;22.86;100.00;100269.50;4895533;29;19938;-76
2023/10/11 11:36:30;;;;;;;;;;;;;;;22.98;100.00;100267.03;4861020;29;19924;-74
2023/10/11 11:39:17;;;;;;;;;;;;;;;23.14;100.00;100266.66;4895323;29;20022;-74
2023/10/11 11:41:43;;;;;;;;;;;;;;;23.28;100.00;100262.06;4895320;29;19966;-75
2023/10/11 11:44:19;;;;;;;;;;;;;;;23.41;100.00;100261.25;4894379;29;20327;-75
2023/10/11 11:46:54;;;;;;;;;;;;;;;23.53;100.00;100256.91;4892082;29;19931;-76
2023/10/11 11:49:21;;;;;;;;;;;;;;;23.67;100.00;100245.06;4894722;29;20010;-75
2023/10/11 11:51:53;;;;;;;;;;;;;;;23.76;100.00;100249.19;4875488;29;20033;-75
2023/10/11 11:54:19;;;;;;;;;;;;;;;23.83;100.00;100239.22;4894304;29;19926;-75
2023/10/11 11:56:45;;;;;;;;;;;;;;;23.93;100.00;100244.97;4891381;29;19987;-74
2023/10/11 11:59:19;;;;;;;;;;;;;;;24.03;100.00;100239.97;4892721;29;19923;-75
2023/10/11 12:01:45;;;;;;;;;;;;;;;24.13;100.00;100233.31;4891879;29;19924;-75
2023/10/11 12:04:10;;;;;;;;;;;;;;;24.21;100.00;100233.09;4895036;29;19934;-75
2023/10/11 12:06:36;;;;;;;;;;;;;;;24.29;100.00;100230.13;4891471;29;19923;-75
2023/10/11 12:09:04;;;;;;;;;;;;;;;24.37;100.00;100229.91;4893822;29;19946;-75
2023/10/11 12:11:31;;;;;;;;;;;;;;;24.46;100.00;100233.97;4877398;29;19924;-76
2023/10/11 12:14:00;;;;;;;;;;;;;;;24.57;100.00;100225.19;4893714;29;19919;-75
2023/10/11 12:16:27;;;;;;;;;;;;;;;24.69;100.00;100218.06;4874179;29;19923;-74
2023/10/11 12:18:59;;;;;;;;;;;;;;;24.84;100.00;100210.50;4890228;29;19994;-74
2023/10/11 12:21:28;;;;;;;;;;;;;;;24.97;100.00;100212.28;4894950;29;20421;-74
2023/10/11 12:23:54;;;;;;;;;;;;;;;25.00;100.00;100213.72;4898529;29;19923;-74
2023/10/11 12:26:20;;;;;;;;;;;;;;;25.05;100.00;100211.16;4896547;29;19931;-74
2023/10/11 12:28:46;;;;;;;;;;;;;;;25.07;100.00;100207.22;4898132;29;20026;-75
2023/10/11 12:31:12;;;;;;;;;;;;;;;25.10;100.00;100208.63;4895099;29;19952;-75
2023/10/11 12:33:38;;;;;;;;;;;;;;;25.16;100.00;100202.34;4885542;29;19924;-74
2023/10/11 12:36:06;;;;;;;;;;;;;;;25.21;100.00;100194.44;4896871;29;20718;-76
2023/10/11 12:38:39;;;;;;;;;;;;;;;25.24;100.00;100197.50;4893794;29;20361;-74
2023/10/11 12:41:05;;;;;;;;;;;;;;;25.26;100.00;100197.28;4897439;29;19931;-73
2023/10/11 12:43:32;;;;;;;;;;;;;;;25.31;100.00;100194.72;4898004;29;19991;-74
2023/10/11 12:46:01;;;;;;;;;;;;;;;25.34;100.00;100188.88;4898538;29;19923;-76
2023/10/11 12:48:27;;;;;;;;;;;;;;;25.39;100.00;100191.72;4879296;29;19931;-74
2023/10/11 12:50:52;;;;;;;;;;;;;;;25.45;100.00;100182.72;4894276;29;19927;-76
2023/10/11 12:53:18;;;;;;;;;;;;;;;25.47;100.00;100182.50;4898551;29;19924;-74
2023/10/11 12:55:45;;;;;;;;;;;;;;;25.57;100.00;100178.25;4897231;29;20468;-75
2023/10/11 12:58:14;;;;;;;;;;;;;;;25.70;100.00;100185.38;4867533;29;19924;-76
2023/10/11 13:00:48;;;;;;;;;;;;;;;25.78;100.00;100168.88;4896445;29;19928;-76
2023/10/11 13:03:29;;;;;;;;;;;;;;;25.83;100.00;100170.91;4889746;29;19930;-76
2023/10/11 13:05:55;;;;;;;;;;;;;;;25.86;100.00;100163.13;4896467;29;20496;-74
2023/10/11 13:08:24;;;;;;;;;;;;;;;25.88;100.00;100162.91;4894501;29;20010;-73
2023/10/11 13:10:51;;;;;;;;;;;;;;;25.92;100.00;100164.94;4895990;29;19935;-74
2023/10/11 13:13:16;;;;;;;;;;;;;;;26.00;100.00;100155.69;4890872;29;19979;-75
2023/10/11 13:15:53;;;;;;;;;;;;;;;26.03;100.00;100149.84;4898250;29;19923;-74
2023/10/11 13:18:19;;;;;;;;;;;;;;;26.03;100.00;100147.97;4877962;29;19924;-72
2023/10/11 13:20:45;;;;;;;;;;;;;;;26.05;100.00;100147.72;4895143;29;19947;-74
2023/10/11 13:23:11;;;;;;;;;;;;;;;26.10;100.00;100145.13;4898142;29;19923;-74
2023/10/11 13:25:36;;;;;;;;;;;;;;;26.18;100.00;100152.94;4898351;29;19934;-74
2023/10/11 13:28:03;;;;;;;;;;;;;;;26.23;100.00;100150.41;4895539;29;19923;-76
2023/10/11 13:30:28;;;;;;;;;;;;;;;26.26;100.00;100135.59;4896930;29;19923;-76